Time;durP1;ratioP1;P1;durP2;ratioP2;P2;SDS_P1;SDS_P2;PMS_P1;PMS_P2;Temp;Humidity;BMP_temperature;BMP_pressure;BME280_temperature;BME280_humidity;BME280_pressure;Samples;Min_cycle;Max_cycle;Signal;HPM_P1;HPM_P2
2022/10/01 00:05:28;;;;;;;8.10;6.28;;;;;;;9.76;100.00;100107.28;5158842;27;20041;-89
2022/10/01 00:07:53;;;;;;;10.45;6.90;;;;;;;9.64;100.00;100114.50;5159147;27;20033;-88
2022/10/01 00:10:21;;;;;;;8.37;6.00;;;;;;;9.71;100.00;100106.31;5159165;27;20109;-88
2022/10/01 00:12:50;;;;;;;9.50;7.53;;;;;;;9.72;100.00;100100.66;5140796;27;20046;-88
2022/10/01 00:15:19;;;;;;;10.40;7.15;;;;;;;9.66;100.00;100086.16;5140219;27;20065;-89
2022/10/01 00:17:48;;;;;;;9.67;7.30;;;;;;;9.67;100.00;100081.56;5140115;27;20027;-88
2022/10/01 00:20:16;;;;;;;8.43;5.95;;;;;;;9.65;100.00;100076.38;5140055;27;20054;-88
2022/10/01 00:22:41;;;;;;;7.90;6.60;;;;;;;9.64;100.00;100073.88;5140084;27;20039;-88
2022/10/01 00:25:07;;;;;;;10.03;6.93;;;;;;;9.61;100.00;100067.06;5139858;27;20022;-88
2022/10/01 00:27:34;;;;;;;9.02;6.53;;;;;;;9.62;100.00;100068.69;5140154;27;20041;-88
2022/10/01 00:30:02;;;;;;;8.98;5.70;;;;;;;9.61;100.00;100083.31;5122758;27;20035;-89
2022/10/01 00:32:31;;;;;;;11.97;6.97;;;;;;;9.72;100.00;100051.91;5140232;27;20525;-88
2022/10/01 00:34:59;;;;;;;12.65;7.18;;;;;;;9.66;100.00;100053.63;5140182;27;20022;-88
2022/10/01 00:37:25;;;;;;;7.10;5.50;;;;;;;9.68;100.00;100050.69;5140574;27;20053;-88
2022/10/01 00:39:50;;;;;;;6.63;5.57;;;;;;;9.76;100.00;100019.78;5139790;27;20543;-88
2022/10/01 00:42:25;;;;;;;10.10;6.43;;;;;;;9.68;100.00;100039.06;5140522;27;20062;-89
2022/10/01 00:44:57;;;;;;;8.75;7.00;;;;;;;9.64;100.00;100072.00;5139453;27;20023;-89
2022/10/01 00:47:26;;;;;;;9.90;6.95;;;;;;;9.71;100.00;100054.84;5122404;27;20026;-88
2022/10/01 00:50:06;;;;;;;12.73;7.07;;;;;;;9.68;100.00;100066.13;5158438;27;20121;-89
2022/10/01 00:52:38;;;;;;;10.98;7.60;;;;;;;9.70;100.00;100073.00;5139290;27;20038;-89
2022/10/01 00:55:10;;;;;;;10.25;7.45;;;;;;;9.78;100.00;100050.16;5158176;27;20060;-89
2022/10/01 00:57:42;;;;;;;12.50;7.25;;;;;;;9.77;100.00;100060.19;5139374;27;20578;-89
2022/10/01 01:00:11;;;;;;;9.52;7.55;;;;;;;9.74;100.00;100067.94;5139366;27;20109;-89
2022/10/01 01:02:37;;;;;;;10.30;7.00;;;;;;;9.76;100.00;100061.22;5122456;27;20069;-89
2022/10/01 01:05:04;;;;;;;10.90;7.70;;;;;;;9.76;100.00;100076.66;5139263;27;20462;-90
2022/10/01 01:07:35;;;;;;;9.93;6.22;;;;;;;9.76;100.00;100058.53;5139114;27;20048;-88
2022/10/01 01:10:01;;;;;;;9.80;8.10;;;;;;;9.73;100.00;100077.94;5157579;27;20050;-88
2022/10/01 01:12:47;;;;;;;10.67;6.97;;;;;;;9.81;100.00;100050.53;5157470;27;20038;-88
2022/10/01 01:15:15;;;;;;;9.88;6.95;;;;;;;9.77;100.00;100014.13;5138838;27;20046;-88
2022/10/01 01:18:22;;;;;;;13.85;7.95;;;;;;;9.84;100.00;100041.13;5138910;27;20023;-90
2022/10/01 01:21:14;;;;;;;7.70;5.55;;;;;;;9.80;100.00;100026.38;5138966;27;20034;-89
2022/10/01 01:24:18;;;;;;;8.98;5.65;;;;;;;9.74;100.00;99998.31;5139248;27;20046;-89
2022/10/01 01:26:52;;;;;;;8.10;5.33;;;;;;;9.82;100.00;99949.22;5138739;27;20034;-89
2022/10/01 01:29:31;;;;;;;5.78;3.97;;;;;;;9.74;100.00;99946.84;5157788;27;20022;-89
2022/10/01 01:32:07;;;;;;;6.10;3.95;;;;;;;9.81;100.00;99914.25;5139047;27;20054;-89
2022/10/01 01:34:34;;;;;;;6.10;4.95;;;;;;;9.82;100.00;99908.59;5138513;27;20030;-88
2022/10/01 01:37:13;;;;;;;7.90;4.78;;;;;;;9.79;100.00;99881.16;5138821;27;20518;-88
2022/10/01 01:39:46;;;;;;;5.47;3.57;;;;;;;9.76;100.00;99857.25;5138981;27;20347;-89
2022/10/01 01:42:22;;;;;;;10.23;5.03;;;;;;;9.71;100.00;99889.63;5138386;27;20030;-88
2022/10/01 01:44:53;;;;;;;8.70;5.72;;;;;;;9.74;100.00;99949.53;5156898;27;20046;-88
2022/10/01 01:47:21;;;;;;;8.52;4.00;;;;;;;9.75;100.00;99944.97;5138514;27;20117;-88
2022/10/01 01:49:49;;;;;;;9.40;5.55;;;;;;;9.72;100.00;99946.25;5156418;27;20026;-88
2022/10/01 01:52:16;;;;;;;8.00;5.57;;;;;;;9.77;100.00;99961.81;5138377;27;20385;-89
2022/10/01 01:54:50;;;;;;;5.32;4.13;;;;;;;9.71;100.00;99925.63;5120718;27;20043;-88
2022/10/01 01:57:17;;;;;;;7.20;5.28;;;;;;;9.76;100.00;99943.94;5156708;27;20023;-88
2022/10/01 01:59:44;;;;;;;6.88;4.28;;;;;;;9.77;100.00;99961.81;5137157;27;20082;-87
2022/10/01 02:02:34;;;;;;;5.70;4.20;;;;;;;9.76;100.00;99938.50;5138148;27;20518;-88
2022/10/01 02:05:03;;;;;;;10.80;4.77;;;;;;;9.74;100.00;99937.91;5138757;27;20034;-88
2022/10/01 02:07:51;;;;;;;13.80;6.20;;;;;;;9.74;100.00;99946.03;5138008;27;20023;-87
2022/10/01 02:10:50;;;;;;;5.97;4.53;;;;;;;9.74;100.00;99941.44;5156941;27;20109;-88
2022/10/01 02:13:34;;;;;;;6.40;4.22;;;;;;;9.84;100.00;99949.81;5137689;27;20062;-87
2022/10/01 02:16:20;;;;;;;6.93;4.40;;;;;;;9.80;100.00;99943.22;5138233;27;20378;-87
2022/10/01 02:19:18;;;;;;;3.83;3.23;;;;;;;9.79;100.00;99948.88;5138080;27;20122;-87
2022/10/01 02:21:59;;;;;;;6.95;4.20;;;;;;;9.77;100.00;99934.72;5138077;27;20027;-88
2022/10/01 02:24:46;;;;;;;5.68;4.38;;;;;;;9.76;100.00;99947.44;5156029;27;20091;-88
2022/10/01 02:27:22;;;;;;;4.22;3.83;;;;;;;9.81;100.00;99927.78;5156783;27;20035;-87
2022/10/01 02:29:49;;;;;;;5.40;3.97;;;;;;;9.80;100.00;99913.44;5156600;27;20454;-87
2022/10/01 02:32:17;;;;;;;7.67;3.40;;;;;;;9.88;100.00;99919.56;5137573;27;20081;-87
2022/10/01 02:34:46;;;;;;;3.95;3.15;;;;;;;9.86;100.00;99944.16;5137824;27;20486;-86
2022/10/01 02:37:16;;;;;;;3.95;3.10;;;;;;;9.84;100.00;99913.78;5138269;27;20031;-87
2022/10/01 02:39:44;;;;;;;5.55;3.25;;;;;;;9.82;100.00;99900.47;5137738;27;20118;-87
2022/10/01 02:42:15;;;;;;;4.47;3.08;;;;;;;9.91;100.00;99903.66;5137377;27;20030;-87
2022/10/01 02:44:44;;;;;;;5.47;3.70;;;;;;;9.86;100.00;99913.53;5155731;27;20070;-87
2022/10/01 02:47:13;;;;;;;5.00;3.90;;;;;;;9.89;100.00;99908.50;5120379;27;20030;-87
2022/10/01 02:49:41;;;;;;;3.72;2.80;;;;;;;9.87;100.00;99937.69;5137320;27;20034;-87
2022/10/01 02:52:28;;;;;;;4.10;3.30;;;;;;;9.91;100.00;99914.50;5137228;27;20022;-87
2022/10/01 02:55:10;;;;;;;4.20;3.33;;;;;;;9.87;100.00;99886.22;5137819;27;20454;-87
2022/10/01 02:57:37;;;;;;;4.30;3.33;;;;;;;9.89;100.00;99892.25;5137037;27;20027;-86
2022/10/01 03:00:12;;;;;;;5.20;3.20;;;;;;;9.89;100.00;99886.81;5137233;27;20389;-87
2022/10/01 03:02:40;;;;;;;3.08;2.78;;;;;;;9.97;100.00;99902.72;5155214;27;20042;-87
2022/10/01 03:05:06;;;;;;;2.70;2.42;;;;;;;9.97;100.00;99899.19;5137048;27;20023;-87
2022/10/01 03:07:36;;;;;;;2.20;2.00;;;;;;;9.99;100.00;99902.47;5137192;27;20030;-87
2022/10/01 03:10:07;;;;;;;4.37;2.83;;;;;;;9.99;100.00;99902.47;5137070;27;20423;-88
2022/10/01 03:12:35;;;;;;;4.22;2.50;;;;;;;9.98;100.00;99907.09;5136631;27;20151;-88
2022/10/01 03:15:18;;;;;;;2.75;2.22;;;;;;;10.01;100.00;99901.19;5136882;27;20122;-88
2022/10/01 03:17:50;;;;;;;3.10;2.80;;;;;;;10.03;100.00;99903.66;5137178;27;20089;-88
2022/10/01 03:20:22;;;;;;;2.22;1.98;;;;;;;10.04;100.00;99899.91;5136619;27;20359;-87
2022/10/01 03:22:53;;;;;;;3.40;2.33;;;;;;;10.02;100.00;99888.44;5136837;27;20118;-88
2022/10/01 03:25:21;;;;;;;3.58;2.60;;;;;;;10.03;100.00;99884.69;5137496;27;20046;-88
2022/10/01 03:27:47;;;;;;;4.00;2.50;;;;;;;10.05;100.00;99884.47;5136931;27;20030;-88
2022/10/01 03:30:13;;;;;;;3.37;2.33;;;;;;;10.06;100.00;99889.63;5136440;27;20071;-87
2022/10/01 03:32:47;;;;;;;2.15;1.70;;;;;;;10.11;100.00;99889.78;5136484;27;20027;-87
2022/10/01 03:35:15;;;;;;;3.38;2.10;;;;;;;10.08;100.00;99886.69;5136932;27;20031;-89
2022/10/01 03:37:48;;;;;;;3.63;2.20;;;;;;;10.09;100.00;99896.47;5119517;27;20213;-88
2022/10/01 03:40:14;;;;;;;2.15;1.63;;;;;;;10.09;100.00;99883.75;5137586;27;20082;-88
2022/10/01 03:42:39;;;;;;;2.33;1.70;;;;;;;10.14;100.00;99894.72;5137241;27;20110;-88
2022/10/01 03:45:07;;;;;;;1.43;1.30;;;;;;;10.16;100.00;99902.63;5136277;27;20127;-88
2022/10/01 03:47:35;;;;;;;3.03;1.40;;;;;;;10.15;100.00;99896.34;5136333;27;20070;-88
2022/10/01 03:50:00;;;;;;;2.50;1.13;;;;;;;10.20;100.00;99892.94;5119467;27;20037;-87
2022/10/01 03:52:41;;;;;;;;;;;;;;;;;;;;;
2022/10/01 03:55:07;;;;;;;1.30;1.10;;;;;;;10.25;100.00;99909.31;5138950;27;20408;-87
2022/10/01 03:57:35;;;;;;;1.53;1.20;;;;;;;10.25;100.00;99901.19;5137249;27;20110;-87
2022/10/01 04:00:01;;;;;;;1.15;1.00;;;;;;;10.30;100.00;99892.34;5136432;27;20045;-88
2022/10/01 04:02:31;;;;;;;4.20;1.20;;;;;;;10.34;100.00;99890.84;5136064;27;20555;-88
2022/10/01 04:04:59;;;;;;;1.35;0.90;;;;;;;10.39;100.00;99914.53;5102400;27;20031;-87
2022/10/01 04:07:33;;;;;;;1.00;0.80;;;;;;;10.36;100.00;99894.13;5136437;27;20466;-88
2022/10/01 04:09:58;;;;;;;1.80;0.88;;;;;;;10.43;100.00;99913.00;5137342;27;20038;-88
2022/10/01 04:12:26;;;;;;;1.17;0.80;;;;;;;10.44;100.00;99912.75;5136093;27;20467;-88
2022/10/01 04:14:51;;;;;;;2.05;0.90;;;;;;;10.41;100.00;99913.25;5136319;27;20035;-89
2022/10/01 04:17:24;;;;;;;1.30;0.80;;;;;;;10.47;100.00;99904.16;5136302;27;20037;-88
2022/10/01 04:19:56;;;;;;;1.40;0.80;;;;;;;10.49;100.00;99909.34;5120304;27;20272;-88
2022/10/01 04:22:25;;;;;;;1.10;0.82;;;;;;;10.52;100.00;99909.66;5137802;27;20045;-87
2022/10/01 04:24:52;;;;;;;3.25;0.90;;;;;;;10.53;100.00;99932.22;5158593;27;20054;-88
2022/10/01 04:27:17;;;;;;;2.05;0.90;;;;;;;10.53;100.00;99919.47;5158890;27;20023;-88
2022/10/01 04:29:43;;;;;;;1.93;0.90;;;;;;;10.59;100.00;99941.28;5139612;27;20030;-87
2022/10/01 04:32:11;;;;;;;1.20;0.90;;;;;;;10.60;100.00;99919.34;5139997;27;20054;-88
2022/10/01 04:34:51;;;;;;;2.40;1.20;;;;;;;10.64;100.00;99927.84;5139898;27;20030;-88
2022/10/01 04:37:19;;;;;;;1.63;1.00;;;;;;;10.68;100.00;99924.41;5140408;27;20109;-88
2022/10/01 04:39:48;;;;;;;2.95;1.45;;;;;;;10.67;100.00;99920.06;5139844;27;20026;-88
2022/10/01 04:42:13;;;;;;;3.17;1.33;;;;;;;10.70;100.00;99941.28;5139371;27;20027;-88
2022/10/01 04:44:39;;;;;;;2.20;1.50;;;;;;;10.69;100.00;99942.34;5139756;27;20144;-88
2022/10/01 04:47:06;;;;;;;8.02;1.73;;;;;;;10.73;100.00;99936.44;5139288;27;20489;-88
2022/10/01 04:49:32;;;;;;;2.53;1.60;;;;;;;10.79;100.00;99933.59;5139613;27;20045;-88
2022/10/01 04:52:04;;;;;;;2.63;1.45;;;;;;;10.77;100.00;99926.75;5139549;27;20031;-87
2022/10/01 04:54:32;;;;;;;2.10;1.58;;;;;;;10.80;100.00;99945.25;5139487;27;20023;-88
2022/10/01 04:57:00;;;;;;;2.10;1.53;;;;;;;10.82;100.00;99935.81;5139728;27;20055;-87
2022/10/01 04:59:28;;;;;;;2.70;1.73;;;;;;;10.88;100.00;99939.47;5122280;27;20132;-88
2022/10/01 05:01:55;;;;;;;6.63;2.00;;;;;;;10.91;100.00;99951.72;5122133;27;20051;-88
2022/10/01 05:04:26;;;;;;;4.90;2.10;;;;;;;10.92;100.00;99945.25;5139339;27;20363;-88
2022/10/01 05:06:59;;;;;;;3.40;2.25;;;;;;;10.91;100.00;99947.13;5157869;27;20042;-88
2022/10/01 05:09:26;;;;;;;2.97;2.00;;;;;;;10.96;100.00;99954.56;5140153;27;20352;-88
2022/10/01 05:11:52;;;;;;;2.90;2.25;;;;;;;10.93;100.00;99952.31;5139105;27;20061;-88
2022/10/01 05:14:20;;;;;;;3.20;2.67;;;;;;;10.96;100.00;99955.38;5138810;27;20055;-88
2022/10/01 05:16:47;;;;;;;3.03;2.73;;;;;;;11.01;100.00;99952.78;5122181;27;20031;-88
2022/10/01 05:19:16;;;;;;;3.60;2.85;;;;;;;11.01;100.00;99988.06;5121482;27;20081;-88
2022/10/01 05:21:42;;;;;;;3.47;3.10;;;;;;;11.00;100.00;99967.41;5157317;27;20034;-88
2022/10/01 05:24:08;;;;;;;3.58;2.97;;;;;;;11.03;100.00;99983.22;5157746;27;20470;-87
2022/10/01 05:26:35;;;;;;;3.30;2.93;;;;;;;11.06;100.00;99974.59;5138854;27;20143;-87
2022/10/01 05:29:01;;;;;;;5.82;3.42;;;;;;;11.06;100.00;99981.91;5139088;27;20031;-88
2022/10/01 05:31:31;;;;;;;5.20;3.20;;;;;;;11.12;100.00;99988.28;5121559;27;20376;-88
2022/10/01 05:33:57;;;;;;;4.85;3.63;;;;;;;11.11;100.00;99992.88;5156917;27;20489;-89
2022/10/01 05:36:27;;;;;;;6.85;3.80;;;;;;;11.13;100.00;99995.34;5156993;27;20026;-88
2022/10/01 05:38:55;;;;;;;8.10;4.37;;;;;;;11.15;100.00;100002.19;5156883;27;20022;-88
2022/10/01 05:41:23;;;;;;;5.57;4.07;;;;;;;11.15;100.00;99995.94;5138467;27;20343;-87
2022/10/01 05:43:50;;;;;;;5.07;4.57;;;;;;;11.18;100.00;100000.88;5139223;27;20034;-87
2022/10/01 05:46:15;;;;;;;6.18;5.00;;;;;;;11.15;100.00;99983.19;5138417;27;20115;-86
2022/10/01 05:48:48;;;;;;;9.30;4.97;;;;;;;11.18;100.00;99993.56;5138057;27;20674;-87
2022/10/01 05:51:16;;;;;;;5.20;4.25;;;;;;;11.19;100.00;100003.38;5138238;27;20023;-89
2022/10/01 05:53:51;;;;;;;6.78;5.50;;;;;;;11.21;100.00;100011.28;5122168;27;20038;-89
2022/10/01 05:56:22;;;;;;;7.78;5.03;;;;;;;11.22;100.00;100021.06;5121718;27;20121;-89
2022/10/01 05:58:50;;;;;;;9.33;5.57;;;;;;;11.22;100.00;100010.22;5156708;27;20075;-88
2022/10/01 06:01:21;;;;;;;7.10;5.07;;;;;;;11.25;100.00;100017.88;5120910;27;20046;-90
2022/10/01 06:04:02;;;;;;;10.95;6.38;;;;;;;11.23;100.00;100015.41;5122238;27;20378;-90
2022/10/01 06:06:30;;;;;;;6.65;5.35;;;;;;;11.25;100.00;100015.16;5139332;27;20033;-87
2022/10/01 06:08:58;;;;;;;7.93;5.75;;;;;;;11.24;100.00;100019.75;5138472;27;20079;-89
2022/10/01 06:11:23;;;;;;;9.70;5.77;;;;;;;11.22;100.00;100015.63;5156579;27;20056;-88
2022/10/01 06:13:50;;;;;;;9.68;6.57;;;;;;;11.23;100.00;100017.28;5120845;27;20056;-88
2022/10/01 06:16:18;;;;;;;12.07;6.72;;;;;;;11.19;100.00;100016.09;5156534;27;20106;-88
2022/10/01 06:18:43;;;;;;;10.77;6.30;;;;;;;11.18;100.00;100018.00;5137710;27;20018;-87
2022/10/01 06:21:09;;;;;;;12.77;6.80;;;;;;;11.18;100.00;100023.41;5120664;27;20390;-87
2022/10/01 06:23:53;;;;;;;11.60;7.23;;;;;;;11.22;100.00;100037.38;5137687;27;20031;-87
2022/10/01 06:26:24;;;;;;;10.98;7.25;;;;;;;11.27;100.00;100023.06;5137456;27;20027;-88
2022/10/01 06:28:50;;;;;;;12.60;7.93;;;;;;;11.33;100.00;100030.25;5120948;27;20035;-88
2022/10/01 06:31:16;;;;;;;14.40;7.50;;;;;;;11.34;100.00;100024.56;5137757;27;20466;-87
2022/10/01 06:33:44;;;;;;;14.57;8.35;;;;;;;11.33;100.00;100030.25;5137799;27;20034;-87
2022/10/01 06:36:11;;;;;;;17.83;7.83;;;;;;;11.34;100.00;100037.34;5120995;27;20458;-88
2022/10/01 06:38:37;;;;;;;16.27;8.63;;;;;;;11.38;100.00;100042.03;5137625;27;20030;-88
2022/10/01 06:41:04;;;;;;;12.77;8.32;;;;;;;11.43;100.00;100041.31;5155887;27;20018;-88
2022/10/01 06:43:39;;;;;;;17.53;9.13;;;;;;;11.45;100.00;100041.88;5137404;27;20023;-88
2022/10/01 06:46:07;;;;;;;15.73;8.75;;;;;;;11.50;100.00;100041.16;5119718;27;20031;-87
2022/10/01 06:48:34;;;;;;;17.85;10.38;;;;;;;11.56;100.00;100048.38;5136878;27;20030;-88
2022/10/01 06:51:00;;;;;;;16.52;9.43;;;;;;;11.61;100.00;100062.03;5137159;27;20095;-88
2022/10/01 06:53:29;;;;;;;16.50;9.97;;;;;;;11.69;100.00;100058.09;5136914;27;20027;-88
2022/10/01 06:55:54;;;;;;;17.35;9.57;;;;;;;11.72;100.00;100058.47;5136837;27;20023;-88
2022/10/01 06:58:29;;;;;;;17.07;10.13;;;;;;;11.81;100.00;100064.34;5155505;27;20029;-88
2022/10/01 07:01:01;;;;;;;17.25;9.25;;;;;;;11.87;100.00;100057.94;5137067;27;20422;-88
2022/10/01 07:03:40;;;;;;;;;;;;;;;;;;;;;
2022/10/01 07:06:13;;;;;;;16.23;9.30;;;;;;;11.92;100.00;100052.56;5156143;27;20022;-88
2022/10/01 07:08:39;;;;;;;15.70;10.05;;;;;;;11.96;100.00;100062.97;5137421;27;20034;-88
2022/10/01 07:11:07;;;;;;;15.57;9.37;;;;;;;12.01;100.00;100066.63;5136877;27;20033;-87
2022/10/01 07:13:36;;;;;;;14.63;9.27;;;;;;;12.09;100.00;100068.97;5155255;27;20031;-88
2022/10/01 07:16:03;;;;;;;18.70;10.30;;;;;;;12.16;100.00;100067.97;5137020;27;20026;-88
2022/10/01 07:18:33;;;;;;;17.37;11.00;;;;;;;12.25;100.00;100077.38;5136788;27;20027;-88
2022/10/01 07:20:59;;;;;;;15.43;9.80;;;;;;;12.31;100.00;100079.09;5119725;27;20023;-88
2022/10/01 07:23:24;;;;;;;18.13;10.17;;;;;;;12.38;100.00;100081.69;5136930;27;20071;-88
2022/10/01 07:25:54;;;;;;;14.07;10.23;;;;;;;12.41;100.00;100073.84;5137615;27;20619;-88
2022/10/01 07:28:22;;;;;;;19.50;9.70;;;;;;;12.41;100.00;100071.13;5136723;27;20038;-88
2022/10/01 07:31:13;;;;;;;17.50;9.70;;;;;;;12.43;100.00;100095.38;5136296;27;20474;-88
2022/10/01 07:33:44;;;;;;;22.47;9.80;;;;;;;12.45;100.00;100093.25;5155637;27;20155;-88
2022/10/01 07:36:12;;;;;;;12.73;7.82;;;;;;;12.43;100.00;100103.53;5118893;27;20066;-89
2022/10/01 07:38:42;;;;;;;20.13;9.57;;;;;;;12.41;100.00;100108.41;5155576;27;20019;-87
2022/10/01 07:41:08;;;;;;;22.10;9.70;;;;;;;12.41;100.00;100109.22;5137184;27;20118;-87
2022/10/01 07:43:35;;;;;;;20.30;10.00;;;;;;;12.42;100.00;100102.72;5137459;27;20065;-88
2022/10/01 07:46:01;;;;;;;17.73;10.73;;;;;;;12.47;100.00;100121.00;5136515;27;20348;-87
2022/10/01 07:48:27;;;;;;;19.42;10.55;;;;;;;12.50;100.00;100122.44;5136584;27;20364;-88
2022/10/01 07:51:06;;;;;;;19.43;9.30;;;;;;;12.49;100.00;100128.94;5136233;27;20033;-87
2022/10/01 07:53:32;;;;;;;23.52;11.13;;;;;;;12.48;100.00;100140.91;5137236;27;20049;-87
2022/10/01 07:56:02;;;;;;;20.83;9.73;;;;;;;12.49;100.00;100143.38;5136330;27;20469;-86
2022/10/01 07:58:28;;;;;;;19.17;10.70;;;;;;;12.51;100.00;100152.09;5138806;27;20023;-87
2022/10/01 08:00:57;;;;;;;20.93;10.57;;;;;;;12.52;100.00;100145.59;5138767;27;20389;-87
2022/10/01 08:03:23;;;;;;;20.35;10.70;;;;;;;12.56;100.00;100154.94;5138984;27;20083;-86
2022/10/01 08:05:51;;;;;;;19.90;11.32;;;;;;;12.58;100.00;100158.22;5138252;27;20023;-87
2022/10/01 08:08:26;;;;;;;18.83;10.32;;;;;;;12.60;100.00;100150.63;5137798;27;20042;-87
2022/10/01 08:10:54;;;;;;;18.88;11.13;;;;;;;12.63;100.00;100157.47;5137852;27;20100;-87
2022/10/01 08:13:23;;;;;;;20.67;11.87;;;;;;;12.70;100.00;100151.88;5119372;27;20028;-87
2022/10/01 08:22:43;;;;;;;15.60;8.45;;;;;;;12.84;100.00;100177.69;5039440;28;20071;-87
2022/10/01 08:25:09;;;;;;;17.87;10.90;;;;;;;12.88;100.00;100186.22;5021322;28;20459;-86
2022/10/01 08:27:34;;;;;;;22.13;10.63;;;;;;;12.92;100.00;100182.75;5079270;27;20041;-87
2022/10/01 08:30:00;;;;;;;18.35;9.77;;;;;;;12.97;100.00;100190.97;5103262;27;20031;-87
2022/10/01 08:32:26;;;;;;;18.67;8.90;;;;;;;12.95;100.00;100187.69;5119433;27;20035;-87
2022/10/01 08:34:54;;;;;;;14.27;8.40;;;;;;;12.95;100.00;100187.69;5119309;27;20031;-87
2022/10/01 08:37:27;;;;;;;15.27;7.47;;;;;;;12.94;100.00;100196.94;5119378;27;20382;-87
2022/10/01 08:40:08;;;;;;;13.65;7.32;;;;;;;12.99;100.00;100204.34;5119100;27;20033;-88
2022/10/01 08:42:53;;;;;;;12.63;6.97;;;;;;;13.05;100.00;100202.53;5119089;27;20091;-86
2022/10/01 08:45:39;;;;;;;10.20;5.63;;;;;;;13.02;100.00;100192.16;5118170;27;20043;-86
2022/10/01 08:48:09;;;;;;;7.93;5.10;;;;;;;13.10;100.00;100202.63;5137429;27;20031;-87
2022/10/01 08:50:53;;;;;;;11.50;5.72;;;;;;;13.19;100.00;100195.69;5118982;27;20078;-87
2022/10/01 08:54:02;;;;;;;10.90;5.25;;;;;;;13.12;100.00;100205.91;5118538;27;20046;-87
2022/10/01 08:56:36;;;;;;;16.60;4.97;;;;;;;13.01;100.00;100210.38;5034979;28;20031;-87
2022/10/01 08:59:08;;;;;;;7.95;4.10;;;;;;;12.95;100.00;100214.91;5119089;27;20038;-87
2022/10/01 09:01:37;;;;;;;8.65;4.80;;;;;;;12.96;100.00;100219.31;5118392;27;20059;-87
2022/10/01 09:04:04;;;;;;;9.55;4.93;;;;;;;13.06;100.00;100224.06;5101810;27;20039;-87
2022/10/01 09:06:36;;;;;;;14.07;6.38;;;;;;;13.20;100.00;100219.13;5118661;27;20031;-87
2022/10/01 09:09:12;;;;;;;15.13;6.03;;;;;;;13.17;100.00;100222.38;5119294;27;20031;-88
2022/10/01 09:12:00;;;;;;;17.23;7.30;;;;;;;13.32;100.00;100221.78;5118964;27;20076;-87
2022/10/01 09:14:44;;;;;;;22.92;6.78;;;;;;;13.31;100.00;100225.56;5136674;27;20459;-87
2022/10/01 09:17:24;;;;;;;19.80;6.70;;;;;;;13.40;100.00;100229.53;5118948;27;20056;-87
2022/10/01 09:20:27;;;;;;;15.43;6.35;;;;;;;13.38;100.00;100236.34;5118607;27;20023;-87
2022/10/01 09:23:02;;;;;;;19.07;6.50;;;;;;;13.47;100.00;100243.81;5019538;27;20029;-86
2022/10/01 09:25:29;;;;;;;14.93;6.75;;;;;;;13.59;100.00;100243.72;5118759;27;20031;-86
2022/10/01 09:28:15;;;;;;;22.27;6.47;;;;;;;13.69;100.00;100259.41;5101118;27;20058;-87
2022/10/01 09:30:46;;;;;;;16.00;5.60;;;;;;;13.74;100.00;100245.03;5136425;27;20066;-86
2022/10/01 09:33:17;;;;;;;22.08;5.55;;;;;;;13.78;100.00;100254.38;5137229;27;20070;-86
2022/10/01 09:35:47;;;;;;;21.60;5.37;;;;;;;13.85;100.00;100253.09;5118863;27;20510;-86
2022/10/01 09:38:31;;;;;;;18.05;5.05;;;;;;;13.98;100.00;100259.25;5136402;27;20451;-87
2022/10/01 09:40:57;;;;;;;16.98;4.63;;;;;;;14.00;100.00;100271.56;5136564;27;20034;-86
2022/10/01 09:43:30;;;;;;;15.27;3.50;;;;;;;14.03;100.00;100253.88;5118195;27;20023;-86
2022/10/01 09:45:57;;;;;;;18.20;3.33;;;;;;;13.98;100.00;100256.53;5117895;27;20035;-86
2022/10/01 09:55:04;;;;;;;17.30;2.72;;;;;;;13.82;100.00;100255.50;5135985;27;20034;-86
2022/10/01 09:57:37;;;;;;;16.85;2.28;;;;;;;13.98;100.00;100256.53;5117611;27;20034;-87
2022/10/01 10:00:03;;;;;;;16.83;2.67;;;;;;;14.29;100.00;100273.28;5117967;27;20455;-86
2022/10/01 10:02:38;;;;;;;16.80;2.90;;;;;;;14.70;100.00;100271.91;5117209;27;20057;-86
2022/10/01 10:05:07;;;;;;;18.25;2.92;;;;;;;14.99;100.00;100273.53;5117405;27;20068;-86
2022/10/01 10:07:37;;;;;;;10.05;2.05;;;;;;;14.88;100.00;100280.78;5135723;27;20035;-87
2022/10/01 10:10:20;;;;;;;13.40;1.83;;;;;;;14.64;100.00;100270.16;5118618;27;20047;-87
2022/10/01 10:12:53;;;;;;;18.45;2.70;;;;;;;14.27;100.00;100286.38;5117960;27;20031;-87
2022/10/01 10:15:21;;;;;;;20.63;2.80;;;;;;;13.79;100.00;100285.97;5118246;27;20047;-87
2022/10/01 10:17:51;;;;;;;21.25;3.28;;;;;;;13.71;100.00;100298.16;5117535;27;20131;-86
2022/10/01 10:20:31;;;;;;;17.60;3.00;;;;;;;13.76;100.00;100294.66;5116030;27;20408;-87
2022/10/01 10:23:08;;;;;;;16.23;3.00;;;;;;;13.72;100.00;100312.63;5117211;27;20027;-87
2022/10/01 10:25:36;;;;;;;18.83;3.08;;;;;;;13.67;100.00;100303.28;5135493;27;20076;-86
2022/10/01 10:28:03;;;;;;;18.02;2.65;;;;;;;13.74;100.00;100305.00;5117521;27;20034;-86
2022/10/01 10:30:28;;;;;;;19.45;2.78;;;;;;;13.78;100.00;100306.16;5116281;27;20027;-87
2022/10/01 10:33:03;;;;;;;12.37;2.30;;;;;;;13.76;100.00;100306.41;5116788;27;20027;-86
2022/10/01 10:35:32;;;;;;;14.30;2.63;;;;;;;13.85;100.00;100320.47;5117231;27;20123;-87
2022/10/01 10:37:58;;;;;;;12.27;2.40;;;;;;;13.90;100.00;100312.34;5117028;27;20363;-87
2022/10/01 10:40:38;;;;;;;17.47;2.77;;;;;;;14.14;100.00;100315.69;5116387;27;20087;-87
2022/10/01 10:43:04;;;;;;;12.88;2.20;;;;;;;14.34;100.00;100319.75;5117113;27;20031;-87
2022/10/01 10:45:37;;;;;;;13.03;2.50;;;;;;;14.44;100.00;100336.25;5116857;27;20042;-87
2022/10/01 10:48:06;;;;;;;21.87;3.50;;;;;;;14.47;100.00;100318.56;5116775;27;20279;-85
2022/10/01 10:50:38;;;;;;;15.40;2.70;;;;;;;14.72;100.00;100345.38;5134969;27;20470;-86
2022/10/01 10:53:42;;;;;;;16.15;2.85;;;;;;;15.07;100.00;100338.63;5117607;27;20057;-87
2022/10/01 10:56:21;;;;;;;18.25;3.03;;;;;;;15.60;100.00;100369.75;5116406;27;20034;-86
2022/10/01 10:58:48;;;;;;;17.48;2.78;;;;;;;15.70;100.00;100346.28;5116628;27;20023;-87
2022/10/01 11:01:18;;;;;;;15.87;2.60;;;;;;;15.95;100.00;100353.88;5116132;27;20126;-87
2022/10/01 11:03:48;;;;;;;16.85;2.17;;;;;;;16.78;100.00;100364.16;5116111;27;20050;-86
2022/10/01 11:06:17;;;;;;;15.27;2.10;;;;;;;17.35;91.94;100358.84;5116114;27;20038;-86
2022/10/01 11:08:55;;;;;;;12.70;2.25;;;;;;;18.01;83.02;100366.28;5116338;27;20062;-86
2022/10/01 11:11:46;;;;;;;8.45;2.35;;;;;;;18.09;85.57;100373.09;5116670;27;20080;-87
2022/10/01 11:14:35;;;;;;;9.03;1.77;;;;;;;19.89;74.15;100368.63;5135330;27;20031;-87
2022/10/01 11:17:33;;;;;;;11.52;2.00;;;;;;;20.06;73.83;100365.41;5116154;27;20038;-86
2022/10/01 11:20:18;;;;;;;10.75;2.15;;;;;;;20.58;70.59;100382.19;5116100;28;20031;-86
2022/10/01 11:23:14;;;;;;;8.80;2.00;;;;;;;21.26;67.04;100385.72;5134617;27;20041;-87
2022/10/01 11:26:02;;;;;;;15.55;2.00;;;;;;;21.45;66.15;100377.44;5115902;28;20039;-86
2022/10/01 11:28:44;;;;;;;11.97;2.50;;;;;;;21.64;60.38;100391.25;5134728;28;20463;-87
2022/10/01 11:31:29;;;;;;;9.07;2.15;;;;;;;22.39;62.07;100401.25;5116928;27;20035;-87
2022/10/01 11:34:19;;;;;;;11.80;2.30;;;;;;;23.43;56.59;100399.94;5138889;27;20467;-87
2022/10/01 11:37:01;;;;;;;9.30;2.05;;;;;;;24.67;58.19;100394.81;5120920;27;20035;-87
2022/10/01 11:39:30;;;;;;;7.35;2.10;;;;;;;26.11;48.31;100393.06;5120660;27;20451;-87
2022/10/01 11:42:05;;;;;;;10.23;2.57;;;;;;;26.46;50.20;100401.31;5138563;27;20110;-87
2022/10/01 11:44:46;;;;;;;8.68;2.58;;;;;;;27.17;49.42;100396.97;5120640;27;20463;-87
2022/10/01 11:47:23;;;;;;;10.20;2.30;;;;;;;28.40;45.60;100398.59;5120195;27;20459;-88
2022/10/01 11:50:14;;;;;;;8.80;2.33;;;;;;;28.71;41.51;100395.25;5120382;27;20058;-88
2022/10/01 11:52:51;;;;;;;11.98;2.65;;;;;;;28.77;44.90;100393.06;5138587;27;20443;-88
2022/10/01 12:01:26;;;;;;;12.02;2.95;;;;;;;27.89;40.45;100402.44;5138709;27;20498;-88
2022/10/01 12:03:52;;;;;;;7.75;2.70;;;;;;;25.66;42.90;100408.19;5120350;27;20031;-88
2022/10/01 12:06:48;;;;;;;13.37;3.20;;;;;;;24.64;47.98;100420.41;5119869;27;20466;-88
2022/10/01 12:09:22;;;;;;;12.77;2.47;;;;;;;23.42;50.56;100421.25;5018025;28;20129;-87